Time;durP1;ratioP1;P1;durP2;ratioP2;P2;SDS_P1;SDS_P2;PMS_P1;PMS_P2;Temp;Humidity;BMP_temperature;BMP_pressure;BME280_temperature;BME280_humidity;BME280_pressure;Samples;Min_cycle;Max_cycle;Signal;HPM_P1;HPM_P2
2023/09/01 00:01:11;;;;;;;9.90;6.00;;;;;;;14.71;98.86;100446.25;6133400;23;20053;-80
2023/09/01 00:03:43;;;;;;;15.32;6.32;;;;;;;14.67;98.63;100452.09;6147135;23;20079;-81
2023/09/01 00:06:40;;;;;;;13.02;6.45;;;;;;;14.76;99.10;100472.06;6145150;23;20057;-80
2023/09/01 00:09:25;;;;;;;10.35;6.38;;;;;;;14.87;99.79;100453.94;6146131;23;20021;-81
2023/09/01 00:12:32;;;;;;;9.30;6.07;;;;;;;14.85;99.91;100463.84;6145108;23;20049;-80
2023/09/01 00:15:33;;;;;;;10.63;6.18;;;;;;;14.68;100.00;100441.38;6145013;23;20036;-80
2023/09/01 00:18:19;;;;;;;9.93;5.70;;;;;;;14.73;100.00;100470.59;6145039;23;20074;-80
2023/09/01 00:20:50;;;;;;;12.60;6.63;;;;;;;14.55;100.00;100446.53;6142061;23;20026;-81
2023/09/01 00:23:19;;;;;;;11.88;6.75;;;;;;;14.63;100.00;100458.75;6144046;23;20057;-80
2023/09/01 00:25:59;;;;;;;9.77;6.30;;;;;;;14.60;100.00;100446.78;6143587;23;20026;-80
2023/09/01 00:28:26;;;;;;;11.10;6.32;;;;;;;14.66;100.00;100468.91;6144315;23;20032;-80
2023/09/01 00:31:02;;;;;;;7.20;5.80;;;;;;;14.82;100.00;100487.09;6142025;23;20026;-79
2023/09/01 00:33:33;;;;;;;10.23;6.03;;;;;;;14.72;100.00;100458.44;6142213;23;20049;-79
2023/09/01 00:36:07;;;;;;;10.38;6.80;;;;;;;14.90;100.00;100474.63;6142147;23;20026;-80
2023/09/01 00:38:37;;;;;;;9.93;6.85;;;;;;;14.85;100.00;100450.66;6142042;23;20036;-80
2023/09/01 00:41:17;;;;;;;9.57;6.30;;;;;;;14.94;100.00;100446.09;6142977;23;20033;-80
2023/09/01 00:43:44;;;;;;;11.55;6.10;;;;;;;14.86;100.00;100441.75;6145826;23;20021;-81
2023/09/01 00:46:13;;;;;;;10.15;6.25;;;;;;;14.93;100.00;100457.63;6144192;23;20029;-81
2023/09/01 00:48:42;;;;;;;10.35;6.35;;;;;;;15.01;100.00;100461.97;6144419;23;20029;-81
2023/09/01 00:51:21;;;;;;;8.93;5.80;;;;;;;14.99;100.00;100474.50;6145026;23;20025;-80
2023/09/01 00:53:54;;;;;;;9.30;6.28;;;;;;;14.89;100.00;100449.28;6143730;23;20018;-81
2023/09/01 00:56:28;;;;;;;8.95;5.45;;;;;;;14.66;100.00;100434.66;6145305;23;20018;-80
2023/09/01 00:59:28;;;;;;;8.57;6.57;;;;;;;14.94;100.00;100467.19;6145339;23;20029;-81
2023/09/01 01:01:55;;;;;;;10.50;5.72;;;;;;;14.83;100.00;100451.88;6144515;23;20045;-80
2023/09/01 01:04:24;;;;;;;10.05;6.18;;;;;;;14.87;100.00;100458.38;6142889;23;20022;-81
2023/09/01 01:07:15;;;;;;;10.18;5.47;;;;;;;14.99;100.00;100462.16;6144338;23;20084;-82
2023/09/01 01:10:10;;;;;;;10.23;5.82;;;;;;;14.99;100.00;100464.78;6143486;23;20026;-82
2023/09/01 01:12:54;;;;;;;9.88;5.80;;;;;;;14.83;100.00;100423.69;6143346;23;20469;-81
2023/09/01 01:15:23;;;;;;;15.27;6.28;;;;;;;14.88;100.00;100437.13;6143992;23;20019;-81
2023/09/01 01:18:06;;;;;;;8.75;6.45;;;;;;;15.00;100.00;100458.53;6137754;23;20112;-82
2023/09/01 01:20:52;;;;;;;8.63;5.53;;;;;;;15.07;100.00;100466.50;6139814;23;20022;-82
2023/09/01 01:23:24;;;;;;;9.82;5.68;;;;;;;14.98;100.00;100447.34;6139416;23;20022;-81
2023/09/01 01:26:08;;;;;;;8.43;5.30;;;;;;;15.27;100.00;100449.00;6144066;23;20025;-80
2023/09/01 01:28:34;;;;;;;10.70;5.63;;;;;;;15.07;100.00;100421.69;6144141;23;20233;-80
2023/09/01 01:31:20;;;;;;;10.38;6.20;;;;;;;15.14;100.00;100451.53;6140202;23;20036;-81
2023/09/01 01:34:16;;;;;;;10.13;6.00;;;;;;;15.13;100.00;100452.53;6141825;23;20053;-81
2023/09/01 01:37:02;;;;;;;10.07;6.38;;;;;;;15.08;100.00;100460.22;6143827;23;20073;-80
2023/09/01 01:39:45;;;;;;;9.48;6.43;;;;;;;15.14;100.00;100446.25;6144002;23;20030;-81
2023/09/01 01:42:37;;;;;;;10.65;7.10;;;;;;;15.20;100.00;100454.22;6143222;23;20029;-82
2023/09/01 01:45:16;;;;;;;11.25;6.10;;;;;;;15.25;100.00;100474.75;6142892;23;20097;-81
2023/09/01 01:47:43;;;;;;;11.07;6.75;;;;;;;15.16;100.00;100444.25;6141219;23;20032;-80
2023/09/01 01:50:20;;;;;;;12.82;6.50;;;;;;;15.19;100.00;100434.13;6142426;23;20026;-81
2023/09/01 01:52:46;;;;;;;11.50;7.00;;;;;;;15.40;100.00;100462.28;6142162;23;20018;-81
2023/09/01 01:55:18;;;;;;;11.82;7.65;;;;;;;15.38;100.00;100461.66;6142896;23;20026;-81
2023/09/01 01:57:44;;;;;;;13.43;7.82;;;;;;;15.26;100.00;100455.28;6142247;23;20050;-80
2023/09/01 02:00:14;;;;;;;10.82;7.15;;;;;;;15.25;100.00;100464.19;6141170;23;20033;-79
2023/09/01 02:02:41;;;;;;;14.93;7.55;;;;;;;15.34;100.00;100463.06;6138631;23;20396;-80
2023/09/01 02:05:10;;;;;;;10.52;8.15;;;;;;;15.23;100.00;100456.47;6140859;23;20022;-80
2023/09/01 02:07:39;;;;;;;10.75;7.22;;;;;;;15.22;100.00;100464.56;6132994;23;20109;-81
2023/09/01 02:10:11;;;;;;;13.45;8.15;;;;;;;15.26;100.00;100471.09;6130530;23;20411;-81
2023/09/01 02:12:53;;;;;;;11.27;8.27;;;;;;;15.20;100.00;100463.94;6130891;23;20022;-81
2023/09/01 02:15:19;;;;;;;12.60;7.97;;;;;;;15.02;100.00;100445.97;6132444;23;20025;-82
2023/09/01 02:18:00;;;;;;;12.30;7.90;;;;;;;15.29;100.00;100473.34;6135171;23;20022;-82
2023/09/01 02:20:30;;;;;;;10.52;7.72;;;;;;;15.20;100.00;100451.59;6130928;23;20026;-82
2023/09/01 02:22:58;;;;;;;11.40;7.55;;;;;;;15.13;100.00;100436.72;6135999;23;20057;-81
2023/09/01 02:26:23;;;;;;;11.57;7.95;;;;;;;15.26;100.00;100461.38;6149105;23;20022;-81
2023/09/01 02:29:29;;;;;;;13.90;8.35;;;;;;;15.29;100.00;100470.72;6032061;23;20163;-81
2023/09/01 02:32:04;;;;;;;11.88;8.18;;;;;;;15.25;100.00;100477.38;6030833;23;20032;-80
2023/09/01 02:34:38;;;;;;;12.68;9.05;;;;;;;15.04;100.00;100440.50;6027027;23;20028;-81
2023/09/01 02:37:05;;;;;;;15.93;8.25;;;;;;;15.18;100.00;100473.88;6062973;23;20018;-80
2023/09/01 02:40:10;;;;;;;14.68;8.70;;;;;;;15.31;100.00;100494.25;6145344;23;20025;-82
2023/09/01 02:42:38;;;;;;;14.20;10.05;;;;;;;15.28;100.00;100492.81;6145938;23;20074;-79
2023/09/01 02:45:09;;;;;;;16.40;9.55;;;;;;;15.10;100.00;100463.47;6146722;23;20053;-81
2023/09/01 02:47:36;;;;;;;14.07;9.70;;;;;;;15.21;100.00;100484.84;6146901;23;20025;-79
2023/09/01 02:50:04;;;;;;;13.80;9.60;;;;;;;15.12;100.00;100479.91;6147118;23;20037;-80
2023/09/01 02:52:31;;;;;;;14.48;9.43;;;;;;;15.07;100.00;100482.31;6147521;23;20017;-80
2023/09/01 02:57:30;;;;;;;16.83;10.23;;;;;;;14.84;100.00;100451.66;6130846;23;20131;-81
2023/09/01 02:59:56;;;;;;;16.50;9.60;;;;;;;15.00;100.00;100481.41;6130699;23;20025;-78
2023/09/01 03:02:25;;;;;;;14.05;9.63;;;;;;;14.78;100.00;100456.88;6130102;23;20042;-83
2023/09/01 03:04:52;;;;;;;12.18;9.80;;;;;;;14.87;100.00;100471.56;6129461;23;20033;-80
2023/09/01 03:07:18;;;;;;;14.60;9.73;;;;;;;14.82;100.00;100472.13;6099680;23;20638;-79
2023/09/01 03:09:45;;;;;;;15.25;9.52;;;;;;;14.83;100.00;100462.41;6100153;23;20049;-85
2023/09/01 03:12:12;;;;;;;14.77;9.18;;;;;;;14.84;100.00;100464.84;6099240;23;20102;-81
2023/09/01 03:14:38;;;;;;;13.32;8.98;;;;;;;14.78;100.00;100459.50;6100398;23;20022;-80
2023/09/01 03:17:05;;;;;;;13.90;8.68;;;;;;;14.80;100.00;100460.94;6099773;23;20026;-80
2023/09/01 03:19:35;;;;;;;10.23;7.93;;;;;;;14.78;100.00;100455.06;6095601;23;20081;-81
2023/09/01 03:22:03;;;;;;;14.00;7.78;;;;;;;14.76;100.00;100467.59;6098599;23;20054;-78
2023/09/01 03:24:29;;;;;;;10.57;7.63;;;;;;;14.75;100.00;100463.31;6098559;23;20032;-80
2023/09/01 03:26:56;;;;;;;11.93;8.15;;;;;;;14.75;100.00;100458.06;6098589;23;20026;-79
2023/09/01 03:29:23;;;;;;;17.92;8.73;;;;;;;14.78;100.00;100462.97;6098371;23;20041;-83
2023/09/01 03:31:54;;;;;;;12.57;8.75;;;;;;;14.76;100.00;100474.69;6098699;23;20026;-81
2023/09/01 03:34:21;;;;;;;12.90;8.75;;;;;;;14.78;100.00;100467.41;6101521;23;20074;-81
2023/09/01 03:37:03;;;;;;;15.90;9.25;;;;;;;14.80;100.00;100478.56;6099938;23;20027;-80
2023/09/01 03:39:55;;;;;;;13.63;9.13;;;;;;;14.83;100.00;100478.22;6102645;23;20030;-80
2023/09/01 03:42:42;;;;;;;14.65;9.23;;;;;;;14.78;100.00;100486.66;6102918;23;20023;-81
2023/09/01 03:45:12;;;;;;;13.45;9.70;;;;;;;14.68;100.00;100467.72;6101957;23;20054;-85
2023/09/01 03:47:58;;;;;;;12.25;9.13;;;;;;;14.85;100.00;100482.28;6105675;23;20089;-82
2023/09/01 03:50:51;;;;;;;13.10;9.45;;;;;;;14.82;100.00;100468.66;6104620;23;20091;-82
2023/09/01 03:53:37;;;;;;;15.70;9.45;;;;;;;14.76;100.00;100458.88;6106078;23;20085;-84
2023/09/01 03:56:19;;;;;;;12.70;9.60;;;;;;;14.89;100.00;100480.09;6106129;23;20081;-80
2023/09/01 03:58:46;;;;;;;15.00;10.68;;;;;;;14.76;100.00;100464.97;6099792;23;20081;-81
2023/09/01 04:01:13;;;;;;;14.98;9.52;;;;;;;14.83;100.00;100475.56;6097805;23;20027;-81
2023/09/01 04:06:34;;;;;;;14.73;10.32;;;;;;;14.64;100.00;100437.50;6084276;23;20366;-81
2023/09/01 04:09:24;;;;;;;13.70;9.93;;;;;;;14.86;100.00;100476.00;6095568;23;20368;-80
2023/09/01 04:12:51;;;;;;;15.70;10.63;;;;;;;14.74;100.00;100448.53;6090885;23;20042;-80
2023/09/01 04:18:38;;;;;;;;;;;;;;;;;;;;;
2023/09/01 04:21:41;;;;;;;13.88;9.90;;;;;;;14.72;100.00;100458.44;6085642;23;20090;-80
2023/09/01 04:24:15;;;;;;;14.02;9.35;;;;;;;14.72;100.00;100457.63;6094806;23;20335;-80
2023/09/01 04:26:53;;;;;;;12.65;9.68;;;;;;;14.70;100.00;100451.72;6099193;23;20054;-81
2023/09/01 04:29:22;;;;;;;12.30;9.07;;;;;;;14.88;100.00;100481.09;6097319;23;20034;-81
2023/09/01 04:34:53;;;;;;;13.70;9.27;;;;;;;14.80;100.00;100471.50;6097528;23;20081;-82
2023/09/01 04:38:25;;;;;;;;;;;;;;;;;;;;;
2023/09/01 04:41:22;;;;;;;12.60;8.95;;;;;;;14.83;100.00;100476.38;6089379;23;20069;-79
2023/09/01 04:43:49;;;;;;;11.30;10.00;;;;;;;14.69;100.00;100465.88;6093679;23;20046;-81
2023/09/01 04:46:46;;;;;;;11.73;9.35;;;;;;;14.65;100.00;100457.53;6102987;23;20526;-82
2023/09/01 04:52:31;;;;;;;14.70;10.32;;;;;;;14.87;100.00;100469.75;6099564;23;20049;-81
2023/09/01 04:54:59;;;;;;;17.35;10.13;;;;;;;14.68;100.00;100446.63;6100538;23;20101;-81
2023/09/01 04:57:46;;;;;;;16.15;10.88;;;;;;;14.80;100.00;100474.13;6101026;23;20077;-80
2023/09/01 05:00:29;;;;;;;15.75;9.77;;;;;;;14.65;100.00;100459.41;6100188;23;20037;-81
2023/09/01 05:03:08;;;;;;;15.05;10.02;;;;;;;14.73;100.00;100467.97;6100363;23;20025;-83
2023/09/01 05:08:19;;;;;;;13.35;9.65;;;;;;;14.89;100.00;100475.63;6088330;23;20082;-80
2023/09/01 05:10:48;;;;;;;11.45;10.02;;;;;;;14.95;100.00;100484.63;6098921;23;20022;-79
2023/09/01 05:13:19;;;;;;;16.73;10.30;;;;;;;14.95;100.00;100487.25;6099454;23;20018;-78
2023/09/01 05:15:54;;;;;;;14.48;10.52;;;;;;;14.99;100.00;100485.06;6098094;23;20030;-80
2023/09/01 05:18:32;;;;;;;13.70;10.32;;;;;;;14.92;100.00;100479.72;6099976;23;20038;-80
2023/09/01 05:21:00;;;;;;;14.20;9.73;;;;;;;14.85;100.00;100466.47;6096899;23;20030;-77
2023/09/01 05:23:35;;;;;;;11.50;9.73;;;;;;;14.90;100.00;100469.38;6097566;23;20022;-82
2023/09/01 05:26:34;;;;;;;;;;;;;;;;;;;;;
2023/09/01 05:29:41;;;;;;;14.82;9.35;;;;;;;14.90;100.00;100450.94;6099351;23;20484;-81
2023/09/01 05:32:08;;;;;;;12.88;9.65;;;;;;;14.99;100.00;100470.06;6097778;23;20037;-81
2023/09/01 05:34:35;;;;;;;15.20;10.27;;;;;;;15.10;100.00;100484.56;6099860;23;20542;-81
2023/09/01 05:37:02;;;;;;;12.77;7.97;;;;;;;15.04;100.00;100478.22;6101533;23;20030;-81
2023/09/01 05:39:31;;;;;;;11.02;8.43;;;;;;;15.05;100.00;100468.50;6099879;23;20030;-81
2023/09/01 05:44:43;;;;;;;13.18;8.43;;;;;;;15.21;100.00;100470.84;6094308;23;20022;-82
2023/09/01 05:47:16;;;;;;;9.20;7.88;;;;;;;15.06;100.00;100452.50;6100474;23;20041;-81
2023/09/01 05:49:55;;;;;;;;;;;;;;;15.35;100.00;100483.16;6101527;23;20095;-81
2023/09/01 05:52:32;;;;;;;13.75;8.10;;;;;;;15.37;100.00;100485.59;6102778;23;19957;-81
2023/09/01 05:55:25;;;;;;;9.38;7.32;;;;;;;15.45;100.00;100478.34;6101934;23;20018;-81
2023/09/01 05:58:00;;;;;;;10.05;7.15;;;;;;;15.47;100.00;100486.91;6101968;23;20019;-82
2023/09/01 06:00:31;;;;;;;13.27;8.45;;;;;;;15.42;100.00;100468.19;6102216;23;20558;-81
2023/09/01 06:03:04;;;;;;;12.80;8.30;;;;;;;15.40;100.00;100470.22;6101000;23;20022;-82
2023/09/01 06:05:31;;;;;;;14.15;7.95;;;;;;;15.46;100.00;100471.25;6100377;23;20421;-81
2023/09/01 06:07:58;;;;;;;10.95;8.43;;;;;;;15.46;100.00;100469.44;6099515;23;20062;-80
2023/09/01 06:10:25;;;;;;;12.02;7.18;;;;;;;15.58;100.00;100475.84;6101308;23;20026;-81
2023/09/01 06:12:51;;;;;;;14.15;8.10;;;;;;;15.64;100.00;100476.88;6099746;23;20062;-81
2023/09/01 06:15:18;;;;;;;9.88;8.10;;;;;;;15.69;100.00;100468.41;6099674;23;20073;-81
2023/09/01 06:17:46;;;;;;;12.07;7.95;;;;;;;15.75;100.00;100486.91;6095837;23;20064;-80
2023/09/01 06:20:13;;;;;;;10.27;7.68;;;;;;;15.83;100.00;100486.75;6099913;23;20027;-80
2023/09/01 06:22:40;;;;;;;9.93;7.60;;;;;;;16.15;100.00;100495.88;6100362;23;20363;-81
2023/09/01 06:25:08;;;;;;;10.68;7.05;;;;;;;16.31;100.00;100496.56;6098895;23;20054;-83
2023/09/01 06:27:37;;;;;;;11.88;7.55;;;;;;;16.22;100.00;100499.34;6099205;23;20119;-80
2023/09/01 06:30:05;;;;;;;12.38;7.47;;;;;;;16.11;100.00;100491.16;6098851;23;20022;-80
2023/09/01 06:32:32;;;;;;;11.95;7.10;;;;;;;16.19;100.00;100501.56;6099340;23;20347;-80
2023/09/01 06:35:05;;;;;;;9.40;6.70;;;;;;;16.04;100.00;100479.78;6101674;23;20086;-81
2023/09/01 06:37:31;;;;;;;9.27;6.53;;;;;;;15.88;100.00;100475.63;6104864;23;20095;-81
2023/09/01 06:39:58;;;;;;;13.07;7.60;;;;;;;16.01;100.00;100465.16;6103493;23;20033;-80
2023/09/01 06:42:28;;;;;;;9.07;6.90;;;;;;;16.03;100.00;100471.06;6104090;23;20222;-79
2023/09/01 06:45:00;;;;;;;8.48;6.35;;;;;;;16.09;100.00;100485.28;6103922;23;20452;-80
2023/09/01 06:47:33;;;;;;;10.50;6.85;;;;;;;15.99;100.00;100471.63;6101468;23;20559;-79
2023/09/01 06:50:04;;;;;;;14.77;7.78;;;;;;;16.05;100.00;100476.13;6104710;23;20086;-80
2023/09/01 06:52:31;;;;;;;10.48;6.20;;;;;;;16.22;100.00;100494.06;6104823;23;20025;-81
2023/09/01 06:55:02;;;;;;;11.13;6.55;;;;;;;16.17;100.00;100500.94;6102856;23;20097;-78
2023/09/01 06:57:29;;;;;;;10.00;6.45;;;;;;;16.15;100.00;100493.22;6100292;23;20034;-78
2023/09/01 06:59:55;;;;;;;9.57;6.78;;;;;;;16.21;100.00;100505.66;6100231;23;20388;-79
2023/09/01 07:02:22;;;;;;;8.50;5.93;;;;;;;16.13;100.00;100495.25;6102200;23;20068;-79
2023/09/01 07:04:49;;;;;;;9.98;6.30;;;;;;;16.26;100.00;100497.97;6103845;23;20022;-80
2023/09/01 07:07:17;;;;;;;8.02;6.00;;;;;;;16.23;100.00;100493.06;6105699;23;20023;-78
2023/09/01 07:09:44;;;;;;;9.07;6.30;;;;;;;16.26;100.00;100490.03;6104393;23;20053;-79
2023/09/01 07:12:10;;;;;;;12.60;6.88;;;;;;;16.37;100.00;100493.94;6104824;23;20037;-80
2023/09/01 07:14:37;;;;;;;11.10;6.75;;;;;;;16.37;100.00;100491.31;6104044;23;20046;-79
2023/09/01 07:17:04;;;;;;;9.18;6.93;;;;;;;16.27;100.00;100486.38;6103262;23;20037;-78
2023/09/01 07:19:30;;;;;;;8.38;6.90;;;;;;;16.35;100.00;100487.22;6102804;23;20058;-79
2023/09/01 07:21:57;;;;;;;11.95;7.60;;;;;;;16.34;100.00;100496.16;6102828;23;20468;-79
2023/09/01 07:24:25;;;;;;;9.77;7.28;;;;;;;16.46;100.00;100497.22;6103464;23;20054;-78
2023/09/01 07:26:52;;;;;;;11.52;7.35;;;;;;;16.48;100.00;100487.28;6100750;23;20109;-81
2023/09/01 07:29:18;;;;;;;9.98;7.00;;;;;;;16.39;100.00;100493.75;6100907;23;20054;-80
2023/09/01 07:31:45;;;;;;;9.32;7.32;;;;;;;16.39;100.00;100488.47;6096732;23;20073;-78
2023/09/01 07:34:11;;;;;;;11.30;7.85;;;;;;;16.48;100.00;100482.00;6094773;23;20065;-80
2023/09/01 07:36:38;;;;;;;10.15;7.43;;;;;;;16.48;100.00;100493.38;6100141;23;20522;-79
2023/09/01 07:39:05;;;;;;;7.63;6.60;;;;;;;16.52;100.00;100488.53;6102023;23;20070;-80
2023/09/01 07:41:33;;;;;;;11.27;7.43;;;;;;;16.75;100.00;100496.94;6100728;23;20310;-79
2023/09/01 07:43:59;;;;;;;8.70;6.20;;;;;;;16.68;100.00;100498.75;6101580;23;20054;-80
2023/09/01 07:46:27;;;;;;;9.07;6.50;;;;;;;16.73;100.00;100506.06;6103220;23;20026;-80
2023/09/01 07:48:55;;;;;;;8.20;5.90;;;;;;;16.81;100.00;100500.63;6100140;23;20031;-79
2023/09/01 07:51:22;;;;;;;8.88;5.97;;;;;;;16.67;100.00;100501.59;6098822;23;20081;-80
2023/09/01 07:53:49;;;;;;;7.47;5.78;;;;;;;16.65;100.00;100514.19;6096062;23;20050;-79
2023/09/01 07:56:15;;;;;;;6.53;5.57;;;;;;;16.68;100.00;100519.88;6097001;23;20058;-79
2023/09/01 07:58:43;;;;;;;8.23;5.35;;;;;;;16.68;100.00;100517.25;6100811;23;20058;-80
2023/09/01 08:01:10;;;;;;;8.98;5.60;;;;;;;16.34;100.00;100517.28;6100037;23;20027;-79
2023/09/01 08:03:36;;;;;;;7.88;5.82;;;;;;;16.32;100.00;100512.19;6097671;23;20491;-79
2023/09/01 08:06:04;;;;;;;11.07;5.43;;;;;;;16.41;100.00;100523.41;6101104;23;20026;-82
2023/09/01 08:08:30;;;;;;;11.93;5.65;;;;;;;16.39;100.00;100520.97;6101398;23;20050;-79
2023/09/01 08:10:57;;;;;;;8.48;5.45;;;;;;;16.24;100.00;100521.09;6101604;23;20085;-81
2023/09/01 08:13:24;;;;;;;7.78;6.18;;;;;;;16.17;100.00;100524.72;6102458;23;20046;-80
2023/09/01 08:15:52;;;;;;;10.10;5.57;;;;;;;15.99;100.00;100525.22;6102021;23;20019;-80
2023/09/01 08:18:18;;;;;;;8.35;5.43;;;;;;;16.00;100.00;100528.69;6102922;23;20026;-81
2023/09/01 08:20:48;;;;;;;7.70;5.97;;;;;;;15.89;100.00;100528.22;6100726;23;20443;-79
2023/09/01 08:23:14;;;;;;;9.73;6.55;;;;;;;15.78;100.00;100527.91;6101025;23;20050;-80
2023/09/01 08:25:41;;;;;;;10.23;7.10;;;;;;;15.84;100.00;100529.78;6103182;23;20022;-81
2023/09/01 08:28:08;;;;;;;10.93;6.72;;;;;;;15.89;100.00;100535.31;6104542;23;20086;-82
2023/09/01 08:30:35;;;;;;;9.57;6.90;;;;;;;16.00;100.00;100547.97;6103874;23;20037;-81
2023/09/01 08:33:04;;;;;;;14.02;7.70;;;;;;;16.07;100.00;100543.53;6102233;23;20045;-81
2023/09/01 08:35:31;;;;;;;11.13;7.07;;;;;;;16.02;100.00;100538.03;6102335;23;20074;-82
2023/09/01 08:37:57;;;;;;;12.52;8.23;;;;;;;16.07;100.00;100532.97;6106118;23;20364;-82
2023/09/01 08:40:24;;;;;;;11.98;7.95;;;;;;;16.04;100.00;100543.94;6102293;23;20146;-81
2023/09/01 08:42:51;;;;;;;10.75;7.38;;;;;;;16.03;100.00;100541.50;6100586;23;20058;-82
2023/09/01 08:45:19;;;;;;;11.63;7.85;;;;;;;16.12;100.00;100546.41;6101340;23;20022;-82
2023/09/01 08:47:46;;;;;;;10.77;7.95;;;;;;;16.15;100.00;100548.66;6101246;23;20049;-82
2023/09/01 08:50:16;;;;;;;11.88;8.60;;;;;;;16.13;100.00;100549.88;6101050;23;20026;-79
2023/09/01 08:52:44;;;;;;;10.95;8.70;;;;;;;16.17;100.00;100544.00;6101382;23;20061;-81
2023/09/01 08:58:48;;;;;;;11.20;9.40;;;;;;;16.16;100.00;100539.72;6163429;23;20022;-81
2023/09/01 09:01:16;;;;;;;12.45;9.48;;;;;;;16.01;100.00;100509.19;6165779;23;20073;-81
2023/09/01 09:04:06;;;;;;;12.60;8.93;;;;;;;16.18;100.00;100529.78;6166177;23;20025;-82
2023/09/01 09:07:23;;;;;;;;;;;;;;;;;;;;;
2023/09/01 09:09:58;;;;;;;10.02;7.35;;;;;;;16.49;100.00;100557.59;6161780;23;20032;-82
2023/09/01 09:12:44;;;;;;;9.35;7.63;;;;;;;16.49;100.00;100557.59;6162717;23;20084;-79
2023/09/01 09:15:21;;;;;;;10.18;7.22;;;;;;;16.52;100.00;100528.16;6167269;23;20025;-82
2023/09/01 09:18:12;;;;;;;7.63;6.63;;;;;;;16.80;100.00;100565.03;6165283;23;20033;-81
2023/09/01 09:20:40;;;;;;;10.57;6.20;;;;;;;16.73;100.00;100565.03;6168230;23;20018;-83
2023/09/01 09:23:13;;;;;;;9.10;6.47;;;;;;;16.59;100.00;100558.00;6167389;23;20021;-78
2023/09/01 09:29:31;;;;;;;8.68;6.65;;;;;;;16.38;100.00;100540.47;6165293;23;20049;-80
2023/09/01 09:32:25;;;;;;;7.95;7.15;;;;;;;16.38;100.00;100563.41;6167262;23;20025;-82
2023/09/01 09:35:12;;;;;;;10.05;7.18;;;;;;;16.34;100.00;100541.06;6154578;23;20044;-79
2023/09/01 09:38:04;;;;;;;9.10;7.93;;;;;;;16.33;100.00;100537.59;6167736;23;20342;-78
2023/09/01 09:40:37;;;;;;;11.68;8.52;;;;;;;16.54;100.00;100555.19;6166115;23;20029;-82
2023/09/01 09:43:30;;;;;;;;;;;;;;;;;;;;;
2023/09/01 09:46:19;;;;;;;11.85;10.18;;;;;;;16.80;100.00;100565.88;6166429;23;20028;-79
2023/09/01 09:48:46;;;;;;;12.07;10.48;;;;;;;16.63;100.00;100532.84;6166209;23;20466;-81
2023/09/01 09:55:03;;;;;;;11.63;10.32;;;;;;;16.64;100.00;100541.56;6162696;23;20028;-82
2023/09/01 10:01:14;;;;;;;11.27;9.35;;;;;;;17.07;100.00;100576.50;6158021;23;20052;-79
2023/09/01 10:03:52;;;;;;;11.40;9.35;;;;;;;16.88;100.00;100552.47;6165333;23;20056;-82
2023/09/01 10:06:36;;;;;;;10.85;8.38;;;;;;;17.20;100.00;100592.41;6162748;23;20073;-81
2023/09/01 10:09:42;;;;;;;11.35;8.85;;;;;;;16.82;100.00;100547.97;6165492;23;20048;-80
2023/09/01 10:12:31;;;;;;;9.55;8.25;;;;;;;17.08;100.00;100578.94;6163793;23;20050;-83
2023/09/01 10:15:20;;;;;;;9.85;8.80;;;;;;;16.95;100.00;100555.16;6121425;23;20017;-80
2023/09/01 10:21:25;;;;;;;11.38;9.07;;;;;;;17.50;100.00;100556.63;6045096;23;20031;-81
2023/09/01 10:24:25;;;;;;;10.45;9.35;;;;;;;17.70;100.00;100547.91;6164610;23;20021;-82
2023/09/01 10:31:38;;;;;;;10.13;8.40;;;;;;;18.01;100.00;100544.63;5989596;24;20031;-80
2023/09/01 10:37:51;;;;;;;10.90;8.45;;;;;;;18.79;100.00;100559.47;6161204;23;20030;-82
2023/09/01 10:40:56;;;;;;;10.52;8.98;;;;;;;18.26;100.00;100534.19;6164977;23;20021;-82
2023/09/01 10:44:17;;;;;;;8.65;7.78;;;;;;;18.46;100.00;100564.88;6074710;23;20460;-82
2023/09/01 10:46:49;;;;;;;8.40;7.05;;;;;;;18.70;100.00;100560.75;6047422;23;20028;-82
2023/09/01 10:49:39;;;;;;;8.07;7.28;;;;;;;18.57;100.00;100556.28;6105555;23;20030;-82
2023/09/01 10:52:42;;;;;;;8.93;8.00;;;;;;;18.50;100.00;100536.13;6140783;23;20491;-82
2023/09/01 10:55:34;;;;;;;;;;;;;;;;;;;;;
2023/09/01 10:58:13;;;;;;;9.57;8.63;;;;;;;19.02;100.00;100536.91;6159400;23;20025;-82
2023/09/01 11:00:51;;;;;;;9.82;8.82;;;;;;;18.98;100.00;100560.38;6164287;23;20023;-83
2023/09/01 11:03:33;;;;;;;10.02;8.95;;;;;;;18.96;100.00;100572.22;6163054;23;20448;-82
2023/09/01 11:06:12;;;;;;;10.52;9.38;;;;;;;18.76;100.00;100562.56;6166522;23;20017;-82
2023/09/01 11:09:03;;;;;;;12.60;9.68;;;;;;;18.88;100.00;100552.09;6164759;23;20040;-81
2023/09/01 11:11:33;;;;;;;12.35;9.07;;;;;;;18.72;100.00;100561.34;6167623;23;20021;-84
2023/09/01 11:14:01;;;;;;;11.05;9.88;;;;;;;18.90;100.00;100558.00;6163837;23;20021;-81
2023/09/01 11:16:32;;;;;;;10.73;9.13;;;;;;;18.57;100.00;100526.31;6164284;23;20021;-80
2023/09/01 11:19:06;;;;;;;11.02;9.27;;;;;;;19.03;100.00;100557.91;6163217;23;20039;-81
2023/09/01 11:21:52;;;;;;;10.25;8.32;;;;;;;19.26;100.00;100569.81;6163304;23;20105;-83
2023/09/01 11:24:39;;;;;;;9.85;8.75;;;;;;;19.45;100.00;100561.69;6163464;23;20483;-81
2023/09/01 11:27:06;;;;;;;10.93;8.57;;;;;;;19.37;100.00;100551.38;6162586;23;20022;-81
2023/09/01 11:29:49;;;;;;;11.00;8.68;;;;;;;19.31;100.00;100541.63;6165088;23;20026;-81
2023/09/01 11:32:35;;;;;;;10.00;8.25;;;;;;;19.18;100.00;100549.66;6162067;23;20045;-80
2023/09/01 11:35:06;;;;;;;8.70;7.63;;;;;;;19.15;100.00;100558.84;6161982;23;20018;-80
2023/09/01 11:37:46;;;;;;;10.98;8.88;;;;;;;18.85;100.00;100534.78;6158559;23;20022;-79
2023/09/01 11:40:16;;;;;;;10.73;8.27;;;;;;;18.81;100.00;100536.22;6158099;23;20029;-80
2023/09/01 11:42:47;;;;;;;7.43;6.63;;;;;;;18.53;100.00;100565.66;6154767;23;20464;-80
2023/09/01 11:45:26;;;;;;;9.32;7.32;;;;;;;18.36;100.00;100531.91;6159215;23;20073;-80
2023/09/01 11:48:04;;;;;;;8.18;7.35;;;;;;;18.33;100.00;100542.91;6158293;23;20026;-79
2023/09/01 11:53:32;;;;;;;9.45;7.43;;;;;;;18.30;100.00;100556.59;6147270;23;20472;-80
2023/09/01 11:56:34;;;;;;;9.60;7.50;;;;;;;18.37;100.00;100567.97;6159106;23;20414;-81
2023/09/01 11:59:22;;;;;;;10.03;7.23;;;;;;;18.33;100.00;100538.44;6159862;23;20025;-81
2023/09/01 12:02:32;;;;;;;9.60;6.43;;;;;;;18.46;100.00;100559.56;6160684;23;20032;-80
2023/09/01 12:07:54;;;;;;;;;;;;;;;18.91;100.00;100570.19;6158295;23;20044;-80
2023/09/01 12:10:59;;;;;;;8.55;5.85;;;;;;;19.02;100.00;100540.38;6161527;23;20229;-81
2023/09/01 12:13:35;;;;;;;7.65;5.13;;;;;;;19.37;100.00;100547.91;6160601;23;20238;-80
2023/09/01 12:16:37;;;;;;;7.32;4.50;;;;;;;19.81;100.00;100576.16;6160495;23;20053;-81
2023/09/01 12:22:42;;;;;;;7.50;4.47;;;;;;;20.31;100.00;100566.28;6123115;23;20021;-80
2023/09/01 12:39:20;;;;;;;5.82;3.63;;;;;;;21.31;100.00;100545.34;6051159;23;20049;-81
2023/09/01 12:42:11;;;;;;;4.68;3.63;;;;;;;20.96;100.00;100523.13;6029756;23;20360;-79
2023/09/01 12:49:00;;;;;;;3.95;2.90;;;;;;;21.12;100.00;100502.00;6112270;23;20033;-82
2023/09/01 13:11:48;;;;;;;5.65;3.40;;;;;;;20.51;100.00;100545.59;5976315;24;20443;-84
2023/09/01 13:14:59;;;;;;;4.63;3.92;;;;;;;20.25;100.00;100518.50;6035988;23;20019;-80
2023/09/01 13:21:04;;;;;;;5.28;3.97;;;;;;;20.59;100.00;100546.34;6076502;23;20055;-81
2023/09/01 13:23:39;;;;;;;5.00;3.78;;;;;;;19.89;100.00;100512.94;6075880;23;20029;-80
2023/09/01 13:26:39;;;;;;;6.85;3.80;;;;;;;20.12;100.00;100549.50;6074742;23;20031;-81
2023/09/01 13:29:23;;;;;;;8.10;4.75;;;;;;;20.05;100.00;100540.78;6161227;23;20032;-82
2023/09/01 13:32:05;;;;;;;5.85;4.55;;;;;;;19.81;100.00;100531.03;6164478;23;20021;-81
2023/09/01 13:34:49;;;;;;;7.65;4.43;;;;;;;19.76;100.00;100530.88;6113282;23;20053;-80
2023/09/01 13:37:18;;;;;;;10.65;3.83;;;;;;;19.58;100.00;100533.47;6160103;23;20049;-81
2023/09/01 13:40:03;;;;;;;6.03;4.10;;;;;;;19.63;100.00;100546.91;6157879;23;20040;-80